createdAt,value
2018-05-03T00:02:02.025Z,11.97
2018-05-03T00:04:28.528Z,13.20
2018-05-03T00:06:55.107Z,14.93
2018-05-03T00:09:25.782Z,14.40
2018-05-03T00:11:52.254Z,16.20
2018-05-03T00:14:18.780Z,19.40
2018-05-03T00:16:46.150Z,19.77
2018-05-03T00:19:20.322Z,23.87
2018-05-03T00:21:46.791Z,25.50
2018-05-03T00:24:13.284Z,29.13
2018-05-03T00:26:39.852Z,28.60
2018-05-03T00:29:12.383Z,27.80
2018-05-03T00:31:38.894Z,28.37
2018-05-03T00:34:05.430Z,26.33
2018-05-03T00:36:31.974Z,28.30
2018-05-03T00:38:59.509Z,26.83
2018-05-03T00:41:26.066Z,27.03
2018-05-03T00:43:53.281Z,25.43
2018-05-03T00:46:19.736Z,24.23
2018-05-03T00:48:49.193Z,23.07
2018-05-03T00:51:15.691Z,21.17
2018-05-03T00:53:42.219Z,23.93
2018-05-03T00:56:09.445Z,22.90
2018-05-03T00:58:40.011Z,24.13
2018-05-03T01:01:06.546Z,22.60
2018-05-03T01:03:33.118Z,23.43
2018-05-03T01:05:59.606Z,19.83
2018-05-03T01:08:30.908Z,22.97
2018-05-03T01:10:57.457Z,18.53
2018-05-03T01:13:24.007Z,19.33
2018-05-03T01:15:50.453Z,23.07
2018-05-03T01:18:16.970Z,18.00
2018-05-03T01:20:43.503Z,18.27
2018-05-03T01:23:10.094Z,21.60
2018-05-03T01:25:36.652Z,22.83
2018-05-03T01:28:03.184Z,25.10
2018-05-03T01:30:29.898Z,23.53
2018-05-03T01:32:56.364Z,20.17
2018-05-03T01:38:22.779Z,22.03
2018-05-03T01:40:49.335Z,21.07
2018-05-03T01:43:15.823Z,20.83
2018-05-03T01:45:42.412Z,21.77
2018-05-03T01:48:08.908Z,21.93
2018-05-03T01:50:35.534Z,25.67
2018-05-03T01:53:02.061Z,21.40
2018-05-03T01:55:28.540Z,25.13
2018-05-03T01:57:55.788Z,20.67
2018-05-03T02:00:23.055Z,21.97
2018-05-03T02:02:49.576Z,19.90
2018-05-03T02:05:16.064Z,26.60
2018-05-03T02:07:42.629Z,20.57
2018-05-03T02:10:10.264Z,20.63
2018-05-03T02:12:37.545Z,20.40
2018-05-03T02:15:04.065Z,21.93
2018-05-03T02:17:30.590Z,24.20
2018-05-03T02:19:57.220Z,23.40
2018-05-03T02:22:23.817Z,22.83
2018-05-03T02:24:50.382Z,21.87
2018-05-03T02:27:16.963Z,27.37
2018-05-03T02:29:43.492Z,21.23
2018-05-03T02:32:10.027Z,23.43
2018-05-03T02:34:36.562Z,23.37
2018-05-03T02:37:03.060Z,27.27
2018-05-03T02:39:29.684Z,23.40
2018-05-03T02:41:56.160Z,22.80
2018-05-03T02:44:22.768Z,27.57
2018-05-03T02:46:49.252Z,22.83
2018-05-03T02:49:17.885Z,24.90
2018-05-03T02:51:44.438Z,24.67
2018-05-03T02:54:11.026Z,27.13
2018-05-03T02:56:37.599Z,26.03
2018-05-03T02:59:16.270Z,26.27
2018-05-03T03:01:55.446Z,29.47
2018-05-03T03:04:40.168Z,27.10
2018-05-03T03:10:43.492Z,24.83
2018-05-03T03:16:48.846Z,25.27
2018-05-03T03:19:27.520Z,25.20
2018-05-03T03:22:12.279Z,25.97
2018-05-03T03:25:03.625Z,25.43
2018-05-03T03:27:48.395Z,33.50
2018-05-03T03:30:33.398Z,26.90
2018-05-03T03:33:12.923Z,25.97
2018-05-03T03:36:00.494Z,28.70
2018-05-03T03:38:41.169Z,29.70
2018-05-03T03:41:19.744Z,28.13
2018-05-03T03:43:59.196Z,30.07
2018-05-03T03:46:26.394Z,24.13
2018-05-03T03:48:53.074Z,28.37
2018-05-03T03:51:20.295Z,28.87
2018-05-03T03:53:46.815Z,26.43
2018-05-03T03:56:13.423Z,36.20
2018-05-03T03:58:40.081Z,28.60
2018-05-03T04:01:06.588Z,27.90
2018-05-03T04:03:34.069Z,28.50
2018-05-03T04:06:00.570Z,31.20
2018-05-03T04:08:29.083Z,26.97
2018-05-03T04:10:55.605Z,30.47
2018-05-03T04:13:22.143Z,30.40
2018-05-03T04:15:48.640Z,27.30
2018-05-03T04:18:28.166Z,32.17
2018-05-03T04:21:08.628Z,33.57
2018-05-03T04:23:47.271Z,32.47
2018-05-03T04:26:13.784Z,29.77
2018-05-03T04:28:51.055Z,32.73
2018-05-03T04:31:17.600Z,28.40
2018-05-03T04:33:44.185Z,26.63
2018-05-03T04:36:11.569Z,35.73
2018-05-03T04:38:41.571Z,39.40
2018-05-03T04:41:08.432Z,29.20
2018-05-03T04:43:35.104Z,30.90
2018-05-03T04:46:01.680Z,52.03
2018-05-03T04:48:36.520Z,34.00
2018-05-03T04:51:03.042Z,33.17
2018-05-03T04:53:29.505Z,35.13
2018-05-03T04:55:55.946Z,37.73
2018-05-03T04:58:22.368Z,31.53
2018-05-03T05:00:48.802Z,60.50
2018-05-03T05:03:15.218Z,41.23
2018-05-03T05:05:42.475Z,38.03
2018-05-03T05:08:08.909Z,47.30
2018-05-03T05:10:35.469Z,60.47
2018-05-03T05:13:01.875Z,40.43
2018-05-03T05:15:28.277Z,27.03
2018-05-03T05:17:54.701Z,27.80
2018-05-03T05:20:21.118Z,28.00
2018-05-03T05:22:47.417Z,29.50
2018-05-03T05:25:13.761Z,25.53
2018-05-03T05:27:40.087Z,42.07
2018-05-03T05:30:06.557Z,27.93
2018-05-03T05:32:32.873Z,32.57
2018-05-03T05:34:59.178Z,35.10
2018-05-03T05:37:25.476Z,31.37
2018-05-03T05:39:52.679Z,28.27
2018-05-03T05:42:18.961Z,33.77
2018-05-03T05:44:45.249Z,27.23
2018-05-03T05:47:11.529Z,26.93
2018-05-03T05:49:42.289Z,27.10
2018-05-03T05:52:08.570Z,24.27
2018-05-03T05:54:34.872Z,22.90
2018-05-03T05:57:01.175Z,28.03
2018-05-03T05:59:27.629Z,24.93
2018-05-03T06:01:53.914Z,27.23
2018-05-03T06:04:21.002Z,26.00
2018-05-03T06:06:47.247Z,31.43
2018-05-03T06:09:14.588Z,27.03
2018-05-03T06:11:40.883Z,24.80
2018-05-03T06:14:07.159Z,27.50
2018-05-03T06:16:33.585Z,28.67
2018-05-03T06:19:00.257Z,28.00
2018-05-03T06:21:26.682Z,18.30
2018-05-03T06:23:53.166Z,19.80
2018-05-03T06:26:19.582Z,19.23
2018-05-03T06:28:47.819Z,17.63
2018-05-03T06:31:14.240Z,17.77
2018-05-03T06:33:40.670Z,15.83
2018-05-03T06:36:07.110Z,15.33
2018-05-03T06:38:33.747Z,15.57
2018-05-03T06:41:00.178Z,15.23
2018-05-03T06:43:26.600Z,14.00
2018-05-03T06:45:53.045Z,15.50
2018-05-03T06:48:19.669Z,16.50
2018-05-03T06:50:46.125Z,14.23
2018-05-03T06:53:12.547Z,15.03
2018-05-03T06:55:38.988Z,13.57
2018-05-03T06:58:05.448Z,12.60
2018-05-03T07:00:32.049Z,10.37
2018-05-03T07:02:58.488Z,13.33
2018-05-03T07:05:24.914Z,8.67
2018-05-03T07:07:51.356Z,11.20
2018-05-03T07:10:19.841Z,8.60
2018-05-03T07:12:46.266Z,8.17
2018-05-03T07:15:12.741Z,8.93
2018-05-03T07:17:39.200Z,5.87
2018-05-03T07:20:07.824Z,6.40
2018-05-03T07:22:34.273Z,10.10
2018-05-03T07:25:00.709Z,9.73
2018-05-03T07:27:27.142Z,8.77
2018-05-03T07:29:53.762Z,8.37
2018-05-03T07:32:20.186Z,5.10
2018-05-03T07:34:46.721Z,7.93
2018-05-03T07:37:13.137Z,7.07
2018-05-03T07:39:40.316Z,6.70
2018-05-03T07:42:07.524Z,5.57
2018-05-03T07:44:33.956Z,6.40
2018-05-03T07:47:01.142Z,5.17
2018-05-03T07:49:27.691Z,4.13
2018-05-03T07:51:54.110Z,6.40
2018-05-03T07:54:20.538Z,8.47
2018-05-03T07:56:47.081Z,5.23
2018-05-03T07:59:15.804Z,5.57
2018-05-03T08:01:42.356Z,4.53
2018-05-03T08:04:09.763Z,4.60
2018-05-03T08:06:36.320Z,6.43
2018-05-03T08:09:03.088Z,6.70
2018-05-03T08:11:29.662Z,5.87
2018-05-03T08:13:56.221Z,4.47
2018-05-03T08:16:22.792Z,5.30
2018-05-03T08:18:50.948Z,5.90
2018-05-03T08:21:17.607Z,5.33
2018-05-03T08:23:44.181Z,7.60
2018-05-03T08:26:10.700Z,4.20
2018-05-03T08:28:37.361Z,8.10
2018-05-03T08:31:03.863Z,3.87
2018-05-03T08:33:31.894Z,7.27
2018-05-03T08:35:58.390Z,3.77
2018-05-03T08:38:25.050Z,5.27
2018-05-03T08:40:51.519Z,6.23
2018-05-03T08:43:18.009Z,6.17
2018-05-03T08:45:44.508Z,5.90
2018-05-03T08:48:11.739Z,3.57
2018-05-03T08:50:39.022Z,4.40
2018-05-03T08:53:06.199Z,3.87
2018-05-03T08:55:32.737Z,4.67
2018-05-03T08:57:59.102Z,3.43
2018-05-03T09:00:27.607Z,4.97
2018-05-03T09:02:54.034Z,2.97
2018-05-03T09:05:20.477Z,5.00
2018-05-03T09:07:46.949Z,4.17
2018-05-03T09:10:14.131Z,4.17
2018-05-03T09:12:40.556Z,4.20
2018-05-03T09:15:06.990Z,4.17
2018-05-03T09:17:33.415Z,3.33
2018-05-03T09:19:59.858Z,4.60
2018-05-03T09:22:26.410Z,5.57
2018-05-03T09:24:53.515Z,5.37
2018-05-03T09:27:19.983Z,3.43
2018-05-03T09:29:47.428Z,4.03
2018-05-03T09:32:13.882Z,3.67
2018-05-03T09:34:40.308Z,4.47
2018-05-03T09:37:06.737Z,5.00
2018-05-03T09:39:34.217Z,4.37
2018-05-03T09:42:00.655Z,6.03
2018-05-03T09:44:27.107Z,3.70
2018-05-03T09:46:53.525Z,2.73
2018-05-03T09:49:20.172Z,3.27
2018-05-03T09:51:46.626Z,4.40
2018-05-03T09:54:13.818Z,3.97
2018-05-03T09:56:40.270Z,4.53
2018-05-03T09:59:06.891Z,3.47
2018-05-03T10:01:33.308Z,4.70
2018-05-03T10:03:59.786Z,5.07
2018-05-03T10:06:26.215Z,3.40
2018-05-03T10:08:52.849Z,4.83
2018-05-03T10:11:19.270Z,4.33
2018-05-03T10:13:45.712Z,6.23
2018-05-03T10:16:12.179Z,2.40
2018-05-03T10:18:39.400Z,4.50
2018-05-03T10:21:05.860Z,4.13
2018-05-03T10:23:33.042Z,5.77
2018-05-03T10:25:59.469Z,6.00
2018-05-03T10:28:26.765Z,6.97
2018-05-03T10:30:53.200Z,7.73
2018-05-03T10:33:20.390Z,4.33
2018-05-03T10:35:46.919Z,5.63
2018-05-03T10:38:14.041Z,6.80
2018-05-03T10:40:40.518Z,5.47
2018-05-03T10:43:07.728Z,5.53
2018-05-03T10:45:34.178Z,7.47
2018-05-03T10:48:00.590Z,4.00
2018-05-03T10:50:27.142Z,4.37
2018-05-03T10:52:53.594Z,6.93
2018-05-03T10:55:20.786Z,5.83
2018-05-03T10:57:47.212Z,5.50
2018-05-03T11:00:13.719Z,6.43
2018-05-03T11:02:40.996Z,5.37
2018-05-03T11:05:07.419Z,6.67
2018-05-03T11:07:34.609Z,6.07
2018-05-03T11:10:03.218Z,4.63
2018-05-03T11:12:29.727Z,6.23
2018-05-03T11:14:56.189Z,4.33
2018-05-03T11:17:22.748Z,7.90
2018-05-03T11:19:53.002Z,4.20
2018-05-03T11:22:19.561Z,7.60
2018-05-03T11:24:46.045Z,5.27
2018-05-03T11:27:12.617Z,8.60
2018-05-03T11:29:43.114Z,4.80
2018-05-03T11:32:09.680Z,5.73
2018-05-03T11:34:36.285Z,6.53
2018-05-03T11:37:03.803Z,5.90
2018-05-03T11:39:31.249Z,7.43
2018-05-03T11:41:57.989Z,5.70
2018-05-03T11:44:24.521Z,6.70
2018-05-03T11:46:51.123Z,5.77
2018-05-03T11:49:23.839Z,5.57
2018-05-03T11:51:50.503Z,7.07
2018-05-03T11:54:17.791Z,5.63
2018-05-03T11:56:45.185Z,5.13
2018-05-03T11:59:11.786Z,5.33
2018-05-03T12:01:38.239Z,4.83
2018-05-03T12:04:04.821Z,5.37
2018-05-03T12:06:31.414Z,5.87
2018-05-03T12:09:01.723Z,6.90
2018-05-03T12:11:29.057Z,6.07
2018-05-03T12:13:55.651Z,6.67
2018-05-03T12:16:22.249Z,6.13
2018-05-03T12:18:49.025Z,3.40
2018-05-03T12:21:15.548Z,6.03
2018-05-03T12:23:42.107Z,5.40
2018-05-03T12:26:08.633Z,5.63
2018-05-03T12:28:35.331Z,6.60
2018-05-03T12:31:01.915Z,6.10
2018-05-03T12:33:28.483Z,4.87
2018-05-03T12:35:55.183Z,5.73
2018-05-03T12:38:21.904Z,5.40
2018-05-03T12:40:49.251Z,5.53
2018-05-03T12:43:15.858Z,4.50
2018-05-03T12:45:42.438Z,5.67
2018-05-03T12:48:09.843Z,3.63
2018-05-03T12:50:36.304Z,5.87
2018-05-03T12:53:02.798Z,5.47
2018-05-03T12:55:29.257Z,5.67
2018-05-03T12:57:55.719Z,4.53
2018-05-03T13:00:26.832Z,5.00
2018-05-03T13:02:53.303Z,4.60
2018-05-03T13:05:19.744Z,4.90
2018-05-03T13:07:46.256Z,6.60
2018-05-03T13:10:14.595Z,3.40
2018-05-03T13:12:41.026Z,4.30
2018-05-03T13:15:07.521Z,8.20
2018-05-03T13:17:33.992Z,7.13
2018-05-03T13:20:00.555Z,5.97
2018-05-03T13:22:27.021Z,5.60
2018-05-03T13:24:54.205Z,4.63
2018-05-03T13:27:20.646Z,4.63
2018-05-03T13:29:47.934Z,5.60
2018-05-03T13:32:14.396Z,8.03
2018-05-03T13:34:41.583Z,4.90
2018-05-03T13:37:08.036Z,5.33
2018-05-03T13:39:34.676Z,6.20
2018-05-03T13:42:01.156Z,3.57
2018-05-03T13:44:28.343Z,5.40
2018-05-03T13:46:54.768Z,6.03
2018-05-03T13:49:21.232Z,6.93
2018-05-03T13:51:47.676Z,5.23
2018-05-03T13:54:14.107Z,4.77
2018-05-03T13:56:40.557Z,4.70
2018-05-03T13:59:14.354Z,4.33
2018-05-03T14:01:40.863Z,6.60
2018-05-03T14:04:07.312Z,4.67
2018-05-03T14:06:33.764Z,6.20
2018-05-03T14:09:00.260Z,6.50
2018-05-03T14:11:26.692Z,5.53
2018-05-03T14:13:53.131Z,5.67
2018-05-03T14:16:19.587Z,7.17
2018-05-03T14:18:51.354Z,6.77
2018-05-03T14:21:17.832Z,5.07
2018-05-03T14:23:44.248Z,5.53
2018-05-03T14:26:10.714Z,4.57
2018-05-03T14:28:37.270Z,3.70
2018-05-03T14:31:03.734Z,5.83
2018-05-03T14:33:30.157Z,6.07
2018-05-03T14:35:56.605Z,3.13
2018-05-03T14:38:24.840Z,6.50
2018-05-03T14:40:51.304Z,6.33
2018-05-03T14:43:18.487Z,6.43
2018-05-03T14:45:44.955Z,7.90
2018-05-03T14:48:12.430Z,6.03
2018-05-03T14:50:38.880Z,6.37
2018-05-03T14:53:05.384Z,4.53
2018-05-03T14:55:31.840Z,6.13
2018-05-03T14:57:58.352Z,8.10
2018-05-03T15:00:24.746Z,6.10
2018-05-03T15:02:51.208Z,5.97
2018-05-03T15:05:17.654Z,9.03
2018-05-03T15:07:44.106Z,5.67
2018-05-03T15:10:11.763Z,6.80
2018-05-03T15:12:38.228Z,6.07
2018-05-03T15:15:04.672Z,6.30
2018-05-03T15:17:31.858Z,4.80
2018-05-03T15:20:00.375Z,5.70
2018-05-03T15:22:26.811Z,4.57
2018-05-03T15:24:53.250Z,6.70
2018-05-03T15:27:19.691Z,4.17
2018-05-03T15:29:46.931Z,3.87
2018-05-03T15:32:13.386Z,6.73
2018-05-03T15:34:40.603Z,4.57
2018-05-03T15:37:07.090Z,5.33
2018-05-03T15:39:33.675Z,5.47
2018-05-03T15:42:00.114Z,5.13
2018-05-03T15:44:26.603Z,3.90
2018-05-03T15:46:53.066Z,3.87
2018-05-03T15:49:19.622Z,5.63
2018-05-03T15:51:46.072Z,5.77
2018-05-03T15:54:12.562Z,5.93
2018-05-03T15:56:39.036Z,7.33
2018-05-03T15:59:05.554Z,4.50
2018-05-03T16:01:32.106Z,4.97
2018-05-03T16:03:58.504Z,4.57
2018-05-03T16:06:24.953Z,6.17
2018-05-03T16:08:51.501Z,4.60
2018-05-03T16:11:17.927Z,5.77
2018-05-03T16:13:44.382Z,7.90
2018-05-03T16:16:10.834Z,6.67
2018-05-03T16:18:37.444Z,4.37
2018-05-03T16:21:03.925Z,3.73
2018-05-03T16:23:30.345Z,4.63
2018-05-03T16:25:57.565Z,5.70
2018-05-03T16:28:24.199Z,5.80
2018-05-03T16:30:50.649Z,5.20
2018-05-03T16:33:18.572Z,4.90
2018-05-03T16:35:45.011Z,3.57
2018-05-03T16:38:11.439Z,6.57
2018-05-03T16:40:37.901Z,4.97
2018-05-03T16:43:04.447Z,5.27
2018-05-03T16:45:30.952Z,6.87
2018-05-03T16:47:57.381Z,6.40
2018-05-03T16:50:23.807Z,5.03
2018-05-03T16:52:50.278Z,5.77
2018-05-03T16:55:16.706Z,5.57
2018-05-03T16:57:43.130Z,4.90
2018-05-03T17:00:09.564Z,6.33
2018-05-03T17:02:36.010Z,4.23
2018-05-03T17:05:02.479Z,5.47
2018-05-03T17:07:28.943Z,6.20
2018-05-03T17:09:55.415Z,6.07
2018-05-03T17:12:21.854Z,5.00
2018-05-03T17:14:48.341Z,7.93
2018-05-03T17:17:14.780Z,8.33
2018-05-03T17:19:41.242Z,3.77
2018-05-03T17:22:07.681Z,5.07
2018-05-03T17:24:34.115Z,4.83
2018-05-03T17:27:00.550Z,6.20
2018-05-03T17:29:27.010Z,4.70
2018-05-03T17:31:54.234Z,6.37
2018-05-03T17:34:20.685Z,4.73
2018-05-03T17:36:47.154Z,6.27
2018-05-03T17:39:13.644Z,5.33
2018-05-03T17:41:40.169Z,3.17
2018-05-03T17:44:06.603Z,6.27
2018-05-03T17:46:33.084Z,4.30
2018-05-03T17:49:00.458Z,7.20
2018-05-03T17:51:27.092Z,4.73
2018-05-03T17:53:53.655Z,5.07
2018-05-03T17:56:20.245Z,7.03
2018-05-03T17:58:47.573Z,3.83
2018-05-03T18:01:14.049Z,2.70
2018-05-03T18:03:40.520Z,4.17
2018-05-03T18:06:06.962Z,4.87
2018-05-03T18:08:33.440Z,5.73
2018-05-03T18:11:00.622Z,8.73
2018-05-03T18:13:27.067Z,6.10
2018-05-03T18:15:53.731Z,5.87
2018-05-03T18:18:20.456Z,9.57
2018-05-03T18:20:47.124Z,6.13
2018-05-03T18:23:13.776Z,4.47
2018-05-03T18:25:40.387Z,6.03
2018-05-03T18:28:07.178Z,6.03
2018-05-03T18:30:33.753Z,6.97
2018-05-03T18:33:01.340Z,6.17
2018-05-03T18:35:28.926Z,8.30
2018-05-03T18:37:55.514Z,6.53
2018-05-03T18:40:22.144Z,5.23
2018-05-03T18:42:48.708Z,4.77
2018-05-03T18:45:15.296Z,9.03
2018-05-03T18:47:42.063Z,5.77
2018-05-03T18:50:08.651Z,5.17
2018-05-03T18:52:35.975Z,5.67
2018-05-03T18:55:02.476Z,10.67
2018-05-03T18:57:29.018Z,5.57
2018-05-03T18:59:55.585Z,6.57
2018-05-03T19:02:22.093Z,7.33
2018-05-03T19:04:48.641Z,7.83
2018-05-03T19:07:15.096Z,4.67
2018-05-03T19:09:43.108Z,4.60
2018-05-03T19:12:09.706Z,7.07
2018-05-03T19:14:36.333Z,4.03
2018-05-03T19:17:02.847Z,6.43
2018-05-03T19:19:31.399Z,5.17
2018-05-03T19:21:57.860Z,7.70
2018-05-03T19:24:24.339Z,5.70
2018-05-03T19:26:51.602Z,7.77
2018-05-03T19:29:18.124Z,6.43
2018-05-03T19:31:45.396Z,4.03
2018-05-03T19:34:12.018Z,4.77
2018-05-03T19:36:38.544Z,4.50
2018-05-03T19:39:05.161Z,4.00
2018-05-03T19:41:31.658Z,5.10
2018-05-03T19:43:58.157Z,6.57
2018-05-03T19:46:24.665Z,4.73
2018-05-03T19:48:51.184Z,4.97
2018-05-03T19:51:17.678Z,5.90
2018-05-03T19:53:44.300Z,5.93
2018-05-03T19:56:10.811Z,7.73
2018-05-03T19:58:37.923Z,4.63
2018-05-03T20:01:04.519Z,4.37
2018-05-03T20:03:31.048Z,3.63
2018-05-03T20:05:57.516Z,6.60
2018-05-03T20:08:24.301Z,4.77
2018-05-03T20:10:50.781Z,3.50
2018-05-03T20:13:18.011Z,6.13
2018-05-03T20:15:45.271Z,5.83
2018-05-03T20:18:11.763Z,6.03
2018-05-03T20:20:38.272Z,5.73
2018-05-03T20:23:04.774Z,4.00
2018-05-03T20:25:32.747Z,8.30
2018-05-03T20:27:59.238Z,5.10
2018-05-03T20:30:25.763Z,6.53
2018-05-03T20:32:52.361Z,5.57
2018-05-03T20:35:18.790Z,7.30
2018-05-03T20:37:45.300Z,4.77
2018-05-03T20:40:11.903Z,7.13
2018-05-03T20:42:38.392Z,4.50
2018-05-03T20:45:04.915Z,8.13
2018-05-03T20:47:31.414Z,5.67
2018-05-03T20:49:59.033Z,8.97
2018-05-03T20:52:25.536Z,8.30
2018-05-03T20:54:52.311Z,8.37
2018-05-03T20:57:18.824Z,8.57
2018-05-03T20:59:46.239Z,6.87
2018-05-03T21:02:12.763Z,6.53
2018-05-03T21:04:39.452Z,6.50
2018-05-03T21:07:05.925Z,7.43
2018-05-03T21:09:33.185Z,9.23
2018-05-03T21:11:59.742Z,7.23
2018-05-03T21:14:26.316Z,7.27
2018-05-03T21:16:52.856Z,7.50
2018-05-03T21:19:19.387Z,6.83
2018-05-03T21:21:45.914Z,9.70
2018-05-03T21:24:12.424Z,7.73
2018-05-03T21:26:38.951Z,8.63
2018-05-03T21:29:05.498Z,8.60
2018-05-03T21:31:32.130Z,10.50
2018-05-03T21:33:58.664Z,7.30
2018-05-03T21:36:25.221Z,7.90
2018-05-03T21:38:51.710Z,5.67
2018-05-03T21:41:18.292Z,7.00
2018-05-03T21:43:44.784Z,7.97
2018-05-03T21:46:11.321Z,8.93
2018-05-03T21:48:37.859Z,5.40
2018-05-03T21:51:04.386Z,6.37
2018-05-03T21:53:31.675Z,9.23
2018-05-03T21:55:58.228Z,5.60
2018-05-03T21:58:24.703Z,9.83
2018-05-03T22:00:51.292Z,10.77
2018-05-03T22:03:17.772Z,9.93
2018-05-03T22:05:45.675Z,9.87
2018-05-03T22:08:13.440Z,9.40
2018-05-03T22:10:40.866Z,6.63
2018-05-03T22:13:09.536Z,8.50
2018-05-03T22:15:43.277Z,6.53
2018-05-03T22:18:10.307Z,7.23
2018-05-03T22:20:37.909Z,9.10
2018-05-03T22:23:07.388Z,6.60
2018-05-03T22:25:35.798Z,11.53
2018-05-03T22:28:02.678Z,11.03
2018-05-03T22:30:29.527Z,7.80
2018-05-03T22:32:57.220Z,8.13
2018-05-03T22:35:24.067Z,6.07
2018-05-03T22:37:50.870Z,8.60
2018-05-03T22:40:18.695Z,6.13
2018-05-03T22:42:45.579Z,7.77
2018-05-03T22:45:12.476Z,6.93
2018-05-03T22:47:39.292Z,6.83
2018-05-03T22:50:06.179Z,10.17
2018-05-03T22:52:33.011Z,7.27
2018-05-03T22:54:59.814Z,7.10
2018-05-03T22:57:27.418Z,8.13
2018-05-03T22:59:54.227Z,6.20
2018-05-03T23:02:21.853Z,6.60
2018-05-03T23:04:48.682Z,7.60
2018-05-03T23:07:15.549Z,6.27
2018-05-03T23:09:43.202Z,9.07
2018-05-03T23:12:09.999Z,7.57
2018-05-03T23:14:37.371Z,8.40
2018-05-03T23:17:03.902Z,10.43
2018-05-03T23:19:30.446Z,8.90
2018-05-03T23:21:56.918Z,7.93
2018-05-03T23:24:24.115Z,9.67
2018-05-03T23:26:50.578Z,10.60
2018-05-03T23:29:17.137Z,11.83
2018-05-03T23:31:43.732Z,10.00
2018-05-03T23:34:10.265Z,5.60
2018-05-03T23:36:36.778Z,5.57
2018-05-03T23:39:03.387Z,6.57
2018-05-03T23:41:29.914Z,7.20
2018-05-03T23:43:56.360Z,6.33
2018-05-03T23:46:23.605Z,4.47
2018-05-03T23:48:50.136Z,10.40
2018-05-03T23:51:16.607Z,5.47
2018-05-03T23:53:43.162Z,6.27
2018-05-03T23:56:09.703Z,5.93
2018-05-03T23:58:36.198Z,6.87
